sensor_id;sensor_type;location;lat;lon;timestamp;P1;durP1;ratioP1;P2;durP2;ratioP2
73850;SDS011;62190;51.548;5.688;2022-10-29T00:01:01;90.60;;;33.83;;
73850;SDS011;62190;51.548;5.688;2022-10-29T00:03:30;91.08;;;34.08;;
73850;SDS011;62190;51.548;5.688;2022-10-29T00:05:59;87.20;;;33.48;;
73850;SDS011;62190;51.548;5.688;2022-10-29T00:08:31;62.55;;;27.87;;
73850;SDS011;62190;51.548;5.688;2022-10-29T00:11:05;64.25;;;28.30;;
73850;SDS011;62190;51.548;5.688;2022-10-29T00:13:34;76.97;;;28.00;;
73850;SDS011;62190;51.548;5.688;2022-10-29T00:16:11;61.95;;;27.70;;
73850;SDS011;62190;51.548;5.688;2022-10-29T00:18:39;70.55;;;29.72;;
73850;SDS011;62190;51.548;5.688;2022-10-29T00:21:07;88.27;;;33.45;;
73850;SDS011;62190;51.548;5.688;2022-10-29T00:23:38;83.55;;;35.17;;
73850;SDS011;62190;51.548;5.688;2022-10-29T00:26:05;87.78;;;32.88;;
73850;SDS011;62190;51.548;5.688;2022-10-29T00:28:33;94.22;;;30.82;;
73850;SDS011;62190;51.548;5.688;2022-10-29T00:31:03;82.08;;;30.35;;
73850;SDS011;62190;51.548;5.688;2022-10-29T00:33:30;50.20;;;23.12;;
73850;SDS011;62190;51.548;5.688;2022-10-29T00:36:01;71.50;;;28.83;;
73850;SDS011;62190;51.548;5.688;2022-10-29T00:38:30;69.27;;;28.12;;
73850;SDS011;62190;51.548;5.688;2022-10-29T00:40:58;52.33;;;22.67;;
73850;SDS011;62190;51.548;5.688;2022-10-29T00:43:27;67.15;;;24.25;;
73850;SDS011;62190;51.548;5.688;2022-10-29T00:46:02;65.30;;;25.12;;
73850;SDS011;62190;51.548;5.688;2022-10-29T00:48:33;68.42;;;26.23;;
73850;SDS011;62190;51.548;5.688;2022-10-29T00:51:01;68.47;;;25.30;;
73850;SDS011;62190;51.548;5.688;2022-10-29T00:53:32;71.95;;;27.67;;
73850;SDS011;62190;51.548;5.688;2022-10-29T00:56:01;70.10;;;24.90;;
73850;SDS011;62190;51.548;5.688;2022-10-29T00:58:30;72.12;;;24.85;;
73850;SDS011;62190;51.548;5.688;2022-10-29T01:00:58;64.60;;;25.37;;
73850;SDS011;62190;51.548;5.688;2022-10-29T01:03:27;78.40;;;28.17;;
73850;SDS011;62190;51.548;5.688;2022-10-29T01:05:54;74.60;;;28.70;;
73850;SDS011;62190;51.548;5.688;2022-10-29T01:08:21;105.25;;;34.35;;
73850;SDS011;62190;51.548;5.688;2022-10-29T01:11:02;84.55;;;30.05;;
73850;SDS011;62190;51.548;5.688;2022-10-29T01:16:51;77.05;;;30.65;;
73850;SDS011;62190;51.548;5.688;2022-10-29T01:22:15;86.50;;;34.35;;
73850;SDS011;62190;51.548;5.688;2022-10-29T01:33:30;123.45;;;38.17;;
73850;SDS011;62190;51.548;5.688;2022-10-29T01:36:17;87.12;;;34.65;;
73850;SDS011;62190;51.548;5.688;2022-10-29T01:39:02;108.47;;;36.38;;
73850;SDS011;62190;51.548;5.688;2022-10-29T01:41:39;118.13;;;39.80;;
73850;SDS011;62190;51.548;5.688;2022-10-29T01:46:41;61.90;;;27.85;;
73850;SDS011;62190;51.548;5.688;2022-10-29T01:49:11;77.95;;;30.48;;
73850;SDS011;62190;51.548;5.688;2022-10-29T01:51:43;96.20;;;32.58;;
73850;SDS011;62190;51.548;5.688;2022-10-29T01:54:12;96.53;;;30.20;;
73850;SDS011;62190;51.548;5.688;2022-10-29T01:56:39;88.95;;;33.90;;
73850;SDS011;62190;51.548;5.688;2022-10-29T01:59:07;86.15;;;29.20;;
73850;SDS011;62190;51.548;5.688;2022-10-29T02:01:46;93.42;;;33.02;;
73850;SDS011;62190;51.548;5.688;2022-10-29T02:04:20;84.32;;;32.45;;
73850;SDS011;62190;51.548;5.688;2022-10-29T02:07:09;95.22;;;38.00;;
73850;SDS011;62190;51.548;5.688;2022-10-29T02:10:02;108.27;;;39.78;;
73850;SDS011;62190;51.548;5.688;2022-10-29T02:12:38;117.90;;;40.98;;
73850;SDS011;62190;51.548;5.688;2022-10-29T02:15:11;109.57;;;37.55;;
73850;SDS011;62190;51.548;5.688;2022-10-29T02:17:48;76.65;;;27.27;;
73850;SDS011;62190;51.548;5.688;2022-10-29T02:20:16;77.40;;;26.60;;
73850;SDS011;62190;51.548;5.688;2022-10-29T02:22:44;92.47;;;31.17;;
73850;SDS011;62190;51.548;5.688;2022-10-29T02:25:12;86.37;;;33.58;;
73850;SDS011;62190;51.548;5.688;2022-10-29T02:27:39;89.05;;;32.15;;
73850;SDS011;62190;51.548;5.688;2022-10-29T02:30:06;146.57;;;45.12;;
73850;SDS011;62190;51.548;5.688;2022-10-29T02:32:34;107.45;;;38.20;;
73850;SDS011;62190;51.548;5.688;2022-10-29T02:35:03;105.32;;;34.27;;
73850;SDS011;62190;51.548;5.688;2022-10-29T02:37:31;98.25;;;34.85;;
73850;SDS011;62190;51.548;5.688;2022-10-29T02:40:00;104.80;;;34.88;;
73850;SDS011;62190;51.548;5.688;2022-10-29T02:42:28;84.42;;;28.90;;
73850;SDS011;62190;51.548;5.688;2022-10-29T02:44:55;90.00;;;30.37;;
73850;SDS011;62190;51.548;5.688;2022-10-29T02:47:22;90.55;;;33.28;;
73850;SDS011;62190;51.548;5.688;2022-10-29T02:49:50;85.92;;;28.75;;
73850;SDS011;62190;51.548;5.688;2022-10-29T02:52:17;89.45;;;30.85;;
73850;SDS011;62190;51.548;5.688;2022-10-29T02:54:44;67.95;;;29.55;;
73850;SDS011;62190;51.548;5.688;2022-10-29T02:57:12;106.78;;;38.65;;
73850;SDS011;62190;51.548;5.688;2022-10-29T02:59:39;152.82;;;47.70;;
73850;SDS011;62190;51.548;5.688;2022-10-29T03:02:06;136.47;;;45.03;;
73850;SDS011;62190;51.548;5.688;2022-10-29T03:04:35;103.22;;;39.60;;
73850;SDS011;62190;51.548;5.688;2022-10-29T03:07:06;123.72;;;42.03;;
73850;SDS011;62190;51.548;5.688;2022-10-29T03:09:33;150.95;;;47.27;;
73850;SDS011;62190;51.548;5.688;2022-10-29T03:12:02;129.05;;;42.83;;
73850;SDS011;62190;51.548;5.688;2022-10-29T03:14:29;225.60;;;49.35;;
73850;SDS011;62190;51.548;5.688;2022-10-29T03:16:56;149.00;;;44.03;;
73850;SDS011;62190;51.548;5.688;2022-10-29T03:19:24;129.12;;;44.75;;
73850;SDS011;62190;51.548;5.688;2022-10-29T03:21:53;131.80;;;40.92;;
73850;SDS011;62190;51.548;5.688;2022-10-29T03:24:21;118.05;;;39.00;;
73850;SDS011;62190;51.548;5.688;2022-10-29T03:26:48;91.10;;;32.98;;
73850;SDS011;62190;51.548;5.688;2022-10-29T03:29:17;105.97;;;34.98;;
73850;SDS011;62190;51.548;5.688;2022-10-29T03:31:46;80.07;;;31.52;;
73850;SDS011;62190;51.548;5.688;2022-10-29T03:34:13;87.92;;;30.90;;
73850;SDS011;62190;51.548;5.688;2022-10-29T03:36:41;133.25;;;42.65;;
73850;SDS011;62190;51.548;5.688;2022-10-29T03:39:08;176.72;;;55.70;;
73850;SDS011;62190;51.548;5.688;2022-10-29T03:41:35;87.75;;;35.25;;
73850;SDS011;62190;51.548;5.688;2022-10-29T03:44:04;104.07;;;36.28;;
73850;SDS011;62190;51.548;5.688;2022-10-29T03:46:32;93.40;;;30.68;;
73850;SDS011;62190;51.548;5.688;2022-10-29T03:49:01;85.12;;;29.05;;
73850;SDS011;62190;51.548;5.688;2022-10-29T03:51:28;62.48;;;26.80;;
73850;SDS011;62190;51.548;5.688;2022-10-29T03:53:55;105.45;;;35.15;;
73850;SDS011;62190;51.548;5.688;2022-10-29T03:56:22;77.58;;;32.53;;
73850;SDS011;62190;51.548;5.688;2022-10-29T03:58:50;72.47;;;29.67;;
73850;SDS011;62190;51.548;5.688;2022-10-29T04:01:17;94.67;;;32.98;;
73850;SDS011;62190;51.548;5.688;2022-10-29T04:03:44;103.00;;;38.13;;
73850;SDS011;62190;51.548;5.688;2022-10-29T04:06:14;106.63;;;37.38;;
73850;SDS011;62190;51.548;5.688;2022-10-29T04:08:43;123.45;;;40.83;;
73850;SDS011;62190;51.548;5.688;2022-10-29T04:11:11;137.35;;;44.58;;
73850;SDS011;62190;51.548;5.688;2022-10-29T04:13:40;106.87;;;42.70;;
73850;SDS011;62190;51.548;5.688;2022-10-29T04:16:09;100.42;;;44.50;;
73850;SDS011;62190;51.548;5.688;2022-10-29T04:18:36;146.18;;;48.13;;
73850;SDS011;62190;51.548;5.688;2022-10-29T04:21:04;176.45;;;55.83;;
73850;SDS011;62190;51.548;5.688;2022-10-29T04:23:32;102.90;;;42.50;;
73850;SDS011;62190;51.548;5.688;2022-10-29T04:25:59;183.52;;;55.23;;
73850;SDS011;62190;51.548;5.688;2022-10-29T04:28:27;148.47;;;47.95;;
73850;SDS011;62190;51.548;5.688;2022-10-29T04:30:54;150.40;;;48.13;;
73850;SDS011;62190;51.548;5.688;2022-10-29T04:33:21;136.88;;;43.65;;
73850;SDS011;62190;51.548;5.688;2022-10-29T04:35:52;96.75;;;37.33;;
73850;SDS011;62190;51.548;5.688;2022-10-29T04:38:20;158.82;;;47.35;;
73850;SDS011;62190;51.548;5.688;2022-10-29T04:40:47;121.97;;;41.68;;
73850;SDS011;62190;51.548;5.688;2022-10-29T04:43:16;162.95;;;50.63;;
73850;SDS011;62190;51.548;5.688;2022-10-29T04:45:49;152.12;;;50.38;;
73850;SDS011;62190;51.548;5.688;2022-10-29T04:48:16;102.95;;;41.02;;
73850;SDS011;62190;51.548;5.688;2022-10-29T04:50:44;182.20;;;53.20;;
73850;SDS011;62190;51.548;5.688;2022-10-29T04:53:12;150.00;;;51.53;;
73850;SDS011;62190;51.548;5.688;2022-10-29T04:55:40;205.98;;;57.08;;
73850;SDS011;62190;51.548;5.688;2022-10-29T04:58:10;195.20;;;57.35;;
73850;SDS011;62190;51.548;5.688;2022-10-29T05:00:37;181.87;;;57.95;;
73850;SDS011;62190;51.548;5.688;2022-10-29T05:03:04;122.28;;;44.18;;
73850;SDS011;62190;51.548;5.688;2022-10-29T05:05:34;304.10;;;79.85;;
73850;SDS011;62190;51.548;5.688;2022-10-29T05:08:04;151.15;;;47.43;;
73850;SDS011;62190;51.548;5.688;2022-10-29T05:10:34;115.42;;;41.75;;
73850;SDS011;62190;51.548;5.688;2022-10-29T05:13:06;73.62;;;33.48;;
73850;SDS011;62190;51.548;5.688;2022-10-29T05:15:35;85.32;;;34.65;;
73850;SDS011;62190;51.548;5.688;2022-10-29T05:18:03;145.45;;;45.65;;
73850;SDS011;62190;51.548;5.688;2022-10-29T05:20:31;133.35;;;46.20;;
73850;SDS011;62190;51.548;5.688;2022-10-29T05:23:06;114.30;;;40.05;;
73850;SDS011;62190;51.548;5.688;2022-10-29T05:25:36;101.07;;;36.93;;
73850;SDS011;62190;51.548;5.688;2022-10-29T05:28:13;72.05;;;33.02;;
73850;SDS011;62190;51.548;5.688;2022-10-29T05:30:43;154.80;;;48.73;;
73850;SDS011;62190;51.548;5.688;2022-10-29T05:33:12;75.50;;;34.40;;
73850;SDS011;62190;51.548;5.688;2022-10-29T05:35:41;149.85;;;45.00;;
73850;SDS011;62190;51.548;5.688;2022-10-29T05:38:08;181.20;;;55.52;;
73850;SDS011;62190;51.548;5.688;2022-10-29T05:40:37;219.75;;;57.70;;
73850;SDS011;62190;51.548;5.688;2022-10-29T05:43:07;170.77;;;50.30;;
73850;SDS011;62190;51.548;5.688;2022-10-29T05:45:34;206.30;;;55.58;;
73850;SDS011;62190;51.548;5.688;2022-10-29T05:48:02;154.10;;;51.18;;
73850;SDS011;62190;51.548;5.688;2022-10-29T05:50:30;199.90;;;57.48;;
73850;SDS011;62190;51.548;5.688;2022-10-29T05:52:59;177.30;;;58.10;;
73850;SDS011;62190;51.548;5.688;2022-10-29T05:55:28;141.00;;;51.58;;
73850;SDS011;62190;51.548;5.688;2022-10-29T05:57:57;184.60;;;56.30;;
73850;SDS011;62190;51.548;5.688;2022-10-29T06:00:26;126.90;;;49.70;;
73850;SDS011;62190;51.548;5.688;2022-10-29T06:02:55;171.10;;;59.20;;
73850;SDS011;62190;51.548;5.688;2022-10-29T06:05:23;206.47;;;66.07;;
73850;SDS011;62190;51.548;5.688;2022-10-29T06:07:53;204.78;;;66.42;;
73850;SDS011;62190;51.548;5.688;2022-10-29T06:10:41;170.05;;;56.18;;
73850;SDS011;62190;51.548;5.688;2022-10-29T06:13:09;161.50;;;58.55;;
73850;SDS011;62190;51.548;5.688;2022-10-29T06:15:37;188.60;;;61.40;;
73850;SDS011;62190;51.548;5.688;2022-10-29T06:18:05;155.72;;;56.25;;
73850;SDS011;62190;51.548;5.688;2022-10-29T06:20:33;167.60;;;60.25;;
73850;SDS011;62190;51.548;5.688;2022-10-29T06:23:00;197.78;;;63.55;;
73850;SDS011;62190;51.548;5.688;2022-10-29T06:25:27;148.15;;;51.53;;
73850;SDS011;62190;51.548;5.688;2022-10-29T06:27:58;162.43;;;55.60;;
73850;SDS011;62190;51.548;5.688;2022-10-29T06:30:27;84.55;;;37.03;;
73850;SDS011;62190;51.548;5.688;2022-10-29T06:32:57;145.47;;;53.75;;
73850;SDS011;62190;51.548;5.688;2022-10-29T06:35:45;169.07;;;52.33;;
73850;SDS011;62190;51.548;5.688;2022-10-29T06:38:13;182.93;;;52.85;;
73850;SDS011;62190;51.548;5.688;2022-10-29T06:40:40;171.37;;;50.75;;
73850;SDS011;62190;51.548;5.688;2022-10-29T06:43:08;166.68;;;54.25;;
73850;SDS011;62190;51.548;5.688;2022-10-29T06:45:37;181.15;;;53.48;;
73850;SDS011;62190;51.548;5.688;2022-10-29T06:48:04;168.00;;;54.83;;
73850;SDS011;62190;51.548;5.688;2022-10-29T06:50:32;187.90;;;54.88;;
73850;SDS011;62190;51.548;5.688;2022-10-29T06:53:00;123.65;;;48.38;;
73850;SDS011;62190;51.548;5.688;2022-10-29T06:55:31;164.88;;;54.05;;
73850;SDS011;62190;51.548;5.688;2022-10-29T06:57:59;134.60;;;47.30;;
73850;SDS011;62190;51.548;5.688;2022-10-29T07:00:37;130.82;;;48.23;;
73850;SDS011;62190;51.548;5.688;2022-10-29T07:03:05;67.35;;;33.75;;
73850;SDS011;62190;51.548;5.688;2022-10-29T07:05:32;77.42;;;34.48;;
73850;SDS011;62190;51.548;5.688;2022-10-29T07:08:00;75.87;;;35.25;;
73850;SDS011;62190;51.548;5.688;2022-10-29T07:10:31;174.77;;;52.50;;
73850;SDS011;62190;51.548;5.688;2022-10-29T07:12:59;91.97;;;34.63;;
73850;SDS011;62190;51.548;5.688;2022-10-29T07:15:26;141.97;;;42.33;;
73850;SDS011;62190;51.548;5.688;2022-10-29T07:17:57;140.43;;;42.43;;
73850;SDS011;62190;51.548;5.688;2022-10-29T07:20:30;140.15;;;41.28;;
73850;SDS011;62190;51.548;5.688;2022-10-29T07:22:59;142.98;;;52.73;;
73850;SDS011;62190;51.548;5.688;2022-10-29T07:25:27;119.35;;;42.08;;
73850;SDS011;62190;51.548;5.688;2022-10-29T07:28:00;148.65;;;47.95;;
73850;SDS011;62190;51.548;5.688;2022-10-29T07:30:43;105.07;;;39.73;;
73850;SDS011;62190;51.548;5.688;2022-10-29T07:33:12;110.88;;;40.15;;
73850;SDS011;62190;51.548;5.688;2022-10-29T07:35:39;108.07;;;43.13;;
73850;SDS011;62190;51.548;5.688;2022-10-29T07:38:09;146.37;;;48.58;;
73850;SDS011;62190;51.548;5.688;2022-10-29T07:40:37;97.75;;;40.67;;
73850;SDS011;62190;51.548;5.688;2022-10-29T07:43:05;84.45;;;37.63;;
73850;SDS011;62190;51.548;5.688;2022-10-29T07:45:34;83.62;;;37.13;;
73850;SDS011;62190;51.548;5.688;2022-10-29T07:48:02;125.67;;;46.53;;
73850;SDS011;62190;51.548;5.688;2022-10-29T07:50:33;98.42;;;41.30;;
73850;SDS011;62190;51.548;5.688;2022-10-29T07:53:01;109.83;;;43.28;;
73850;SDS011;62190;51.548;5.688;2022-10-29T07:55:31;98.97;;;42.45;;
73850;SDS011;62190;51.548;5.688;2022-10-29T07:57:58;87.30;;;39.73;;
73850;SDS011;62190;51.548;5.688;2022-10-29T08:00:31;102.42;;;41.83;;
73850;SDS011;62190;51.548;5.688;2022-10-29T08:03:01;66.30;;;35.63;;
73850;SDS011;62190;51.548;5.688;2022-10-29T08:05:29;84.37;;;40.40;;
73850;SDS011;62190;51.548;5.688;2022-10-29T08:07:58;78.20;;;38.67;;
73850;SDS011;62190;51.548;5.688;2022-10-29T08:10:25;113.22;;;46.65;;
73850;SDS011;62190;51.548;5.688;2022-10-29T08:12:55;73.83;;;37.63;;
73850;SDS011;62190;51.548;5.688;2022-10-29T08:15:24;82.20;;;39.98;;
73850;SDS011;62190;51.548;5.688;2022-10-29T08:17:54;87.33;;;41.77;;
73850;SDS011;62190;51.548;5.688;2022-10-29T08:20:23;81.15;;;41.58;;
73850;SDS011;62190;51.548;5.688;2022-10-29T08:22:51;114.88;;;47.33;;
73850;SDS011;62190;51.548;5.688;2022-10-29T08:25:18;67.12;;;40.95;;
73850;SDS011;62190;51.548;5.688;2022-10-29T08:28:09;66.47;;;37.00;;
73850;SDS011;62190;51.548;5.688;2022-10-29T08:30:25;53.30;;;31.30;;
73850;SDS011;62190;51.548;5.688;2022-10-29T08:32:53;50.30;;;29.20;;
73850;SDS011;62190;51.548;5.688;2022-10-29T08:35:20;50.23;;;29.25;;
73850;SDS011;62190;51.548;5.688;2022-10-29T08:37:48;67.12;;;33.98;;
73850;SDS011;62190;51.548;5.688;2022-10-29T08:40:25;65.45;;;33.13;;
73850;SDS011;62190;51.548;5.688;2022-10-29T08:45:49;49.42;;;30.40;;
73850;SDS011;62190;51.548;5.688;2022-10-29T08:53:56;43.33;;;23.57;;
73850;SDS011;62190;51.548;5.688;2022-10-29T08:56:31;37.53;;;22.25;;
73850;SDS011;62190;51.548;5.688;2022-10-29T08:58:56;41.15;;;25.37;;
73850;SDS011;62190;51.548;5.688;2022-10-29T09:01:27;40.15;;;23.27;;
73850;SDS011;62190;51.548;5.688;2022-10-29T09:03:55;33.08;;;21.05;;
73850;SDS011;62190;51.548;5.688;2022-10-29T09:09:27;34.48;;;19.87;;
73850;SDS011;62190;51.548;5.688;2022-10-29T09:14:54;31.20;;;18.48;;
73850;SDS011;62190;51.548;5.688;2022-10-29T09:17:37;31.40;;;20.35;;
73850;SDS011;62190;51.548;5.688;2022-10-29T09:20:20;26.57;;;17.05;;
73850;SDS011;62190;51.548;5.688;2022-10-29T09:22:55;29.18;;;16.30;;
73850;SDS011;62190;51.548;5.688;2022-10-29T09:25:28;24.27;;;16.20;;
73850;SDS011;62190;51.548;5.688;2022-10-29T09:28:04;26.95;;;16.60;;
73850;SDS011;62190;51.548;5.688;2022-10-29T09:30:35;22.48;;;13.83;;
73850;SDS011;62190;51.548;5.688;2022-10-29T09:33:04;23.90;;;14.75;;
73850;SDS011;62190;51.548;5.688;2022-10-29T09:38:07;22.22;;;12.13;;
73850;SDS011;62190;51.548;5.688;2022-10-29T09:40:42;22.13;;;12.98;;
73850;SDS011;62190;51.548;5.688;2022-10-29T09:46:00;20.90;;;13.85;;
73850;SDS011;62190;51.548;5.688;2022-10-29T09:48:32;20.62;;;14.35;;
73850;SDS011;62190;51.548;5.688;2022-10-29T09:53:49;17.57;;;12.78;;
73850;SDS011;62190;51.548;5.688;2022-10-29T09:56:16;17.62;;;12.00;;
73850;SDS011;62190;51.548;5.688;2022-10-29T09:58:45;21.60;;;13.00;;
73850;SDS011;62190;51.548;5.688;2022-10-29T10:01:14;22.15;;;11.97;;
73850;SDS011;62190;51.548;5.688;2022-10-29T10:03:42;19.20;;;11.75;;
73850;SDS011;62190;51.548;5.688;2022-10-29T10:06:14;19.35;;;11.45;;
73850;SDS011;62190;51.548;5.688;2022-10-29T10:08:58;21.48;;;13.00;;
73850;SDS011;62190;51.548;5.688;2022-10-29T10:11:34;21.77;;;11.03;;
73850;SDS011;62190;51.548;5.688;2022-10-29T10:14:07;21.77;;;11.28;;
73850;SDS011;62190;51.548;5.688;2022-10-29T10:16:39;18.02;;;11.83;;
73850;SDS011;62190;51.548;5.688;2022-10-29T10:19:42;17.60;;;10.32;;
73850;SDS011;62190;51.548;5.688;2022-10-29T10:21:59;17.30;;;9.93;;
73850;SDS011;62190;51.548;5.688;2022-10-29T10:24:34;16.10;;;9.20;;
73850;SDS011;62190;51.548;5.688;2022-10-29T10:27:50;17.92;;;9.20;;
73850;SDS011;62190;51.548;5.688;2022-10-29T10:30:09;15.05;;;9.73;;
73850;SDS011;62190;51.548;5.688;2022-10-29T10:32:23;17.55;;;9.78;;
73850;SDS011;62190;51.548;5.688;2022-10-29T10:34:51;13.93;;;8.98;;
73850;SDS011;62190;51.548;5.688;2022-10-29T10:37:19;18.30;;;8.93;;
73850;SDS011;62190;51.548;5.688;2022-10-29T10:39:48;16.05;;;9.65;;
73850;SDS011;62190;51.548;5.688;2022-10-29T10:42:24;16.73;;;8.20;;
73850;SDS011;62190;51.548;5.688;2022-10-29T10:44:55;17.02;;;8.33;;
73850;SDS011;62190;51.548;5.688;2022-10-29T10:47:26;12.47;;;8.03;;
73850;SDS011;62190;51.548;5.688;2022-10-29T10:50:08;19.85;;;8.73;;
73850;SDS011;62190;51.548;5.688;2022-10-29T10:52:41;17.32;;;8.65;;
73850;SDS011;62190;51.548;5.688;2022-10-29T10:55:15;16.93;;;8.25;;
73850;SDS011;62190;51.548;5.688;2022-10-29T10:57:54;16.05;;;7.33;;
73850;SDS011;62190;51.548;5.688;2022-10-29T11:00:20;13.53;;;7.30;;
73850;SDS011;62190;51.548;5.688;2022-10-29T11:05:36;14.18;;;6.78;;
73850;SDS011;62190;51.548;5.688;2022-10-29T11:08:28;18.98;;;6.72;;
73850;SDS011;62190;51.548;5.688;2022-10-29T11:11:19;17.30;;;6.72;;
73850;SDS011;62190;51.548;5.688;2022-10-29T11:13:54;15.93;;;6.55;;
73850;SDS011;62190;51.548;5.688;2022-10-29T11:16:32;15.58;;;7.12;;
73850;SDS011;62190;51.548;5.688;2022-10-29T11:19:11;10.95;;;5.12;;
73850;SDS011;62190;51.548;5.688;2022-10-29T11:21:49;12.93;;;5.83;;
73850;SDS011;62190;51.548;5.688;2022-10-29T11:24:34;12.68;;;5.33;;
73850;SDS011;62190;51.548;5.688;2022-10-29T11:27:11;11.35;;;4.85;;
73850;SDS011;62190;51.548;5.688;2022-10-29T11:30:04;14.85;;;5.00;;
73850;SDS011;62190;51.548;5.688;2022-10-29T11:32:37;9.35;;;4.50;;
73850;SDS011;62190;51.548;5.688;2022-10-29T11:38:20;11.68;;;4.30;;
73850;SDS011;62190;51.548;5.688;2022-10-29T11:40:56;15.58;;;5.10;;
73850;SDS011;62190;51.548;5.688;2022-10-29T11:43:30;14.07;;;5.00;;
73850;SDS011;62190;51.548;5.688;2022-10-29T11:48:35;13.58;;;5.03;;
73850;SDS011;62190;51.548;5.688;2022-10-29T11:54:00;18.42;;;6.17;;
73850;SDS011;62190;51.548;5.688;2022-10-29T11:56:37;14.93;;;5.20;;
73850;SDS011;62190;51.548;5.688;2022-10-29T12:04:52;12.95;;;5.40;;
73850;SDS011;62190;51.548;5.688;2022-10-29T12:10:42;13.75;;;4.67;;
73850;SDS011;62190;51.548;5.688;2022-10-29T12:13:34;11.35;;;5.42;;
73850;SDS011;62190;51.548;5.688;2022-10-29T12:16:13;10.05;;;4.60;;
73850;SDS011;62190;51.548;5.688;2022-10-29T12:18:59;13.60;;;5.12;;
73850;SDS011;62190;51.548;5.688;2022-10-29T12:24:30;14.25;;;5.05;;
73850;SDS011;62190;51.548;5.688;2022-10-29T12:27:16;16.42;;;5.15;;
73850;SDS011;62190;51.548;5.688;2022-10-29T12:30:02;10.30;;;4.80;;
73850;SDS011;62190;51.548;5.688;2022-10-29T12:35:32;15.43;;;5.03;;
73850;SDS011;62190;51.548;5.688;2022-10-29T12:38:12;14.65;;;5.87;;
73850;SDS011;62190;51.548;5.688;2022-10-29T12:40:45;13.40;;;5.35;;
73850;SDS011;62190;51.548;5.688;2022-10-29T12:43:20;14.43;;;5.40;;
73850;SDS011;62190;51.548;5.688;2022-10-29T12:46:00;9.45;;;4.85;;
73850;SDS011;62190;51.548;5.688;2022-10-29T12:57:05;12.68;;;5.58;;
73850;SDS011;62190;51.548;5.688;2022-10-29T12:59:40;15.80;;;5.65;;
73850;SDS011;62190;51.548;5.688;2022-10-29T13:15:47;14.58;;;5.28;;
73850;SDS011;62190;51.548;5.688;2022-10-29T13:21:52;13.30;;;4.35;;
73850;SDS011;62190;51.548;5.688;2022-10-29T13:24:02;16.52;;;5.05;;
73850;SDS011;62190;51.548;5.688;2022-10-29T13:27:32;12.98;;;4.53;;
73850;SDS011;62190;51.548;5.688;2022-10-29T13:32:07;15.18;;;4.60;;
73850;SDS011;62190;51.548;5.688;2022-10-29T13:34:58;11.95;;;4.47;;
73850;SDS011;62190;51.548;5.688;2022-10-29T13:37:35;15.10;;;4.97;;
73850;SDS011;62190;51.548;5.688;2022-10-29T13:43:02;10.93;;;4.50;;
73850;SDS011;62190;51.548;5.688;2022-10-29T13:45:35;12.40;;;5.28;;
73850;SDS011;62190;51.548;5.688;2022-10-29T13:48:06;12.65;;;5.10;;
73850;SDS011;62190;51.548;5.688;2022-10-29T13:50:35;11.88;;;4.70;;
73850;SDS011;62190;51.548;5.688;2022-10-29T13:53:04;19.65;;;6.30;;
73850;SDS011;62190;51.548;5.688;2022-10-29T13:55:32;16.87;;;6.72;;
73850;SDS011;62190;51.548;5.688;2022-10-29T13:58:05;11.55;;;4.83;;
73850;SDS011;62190;51.548;5.688;2022-10-29T14:00:38;11.00;;;5.03;;
73850;SDS011;62190;51.548;5.688;2022-10-29T14:03:17;14.25;;;5.37;;
73850;SDS011;62190;51.548;5.688;2022-10-29T14:05:50;16.17;;;5.87;;
73850;SDS011;62190;51.548;5.688;2022-10-29T14:08:23;14.15;;;5.85;;
73850;SDS011;62190;51.548;5.688;2022-10-29T14:10:56;15.20;;;6.03;;
73850;SDS011;62190;51.548;5.688;2022-10-29T14:13:30;14.90;;;5.70;;
73850;SDS011;62190;51.548;5.688;2022-10-29T14:16:00;13.98;;;5.60;;
73850;SDS011;62190;51.548;5.688;2022-10-29T14:18:30;13.20;;;6.85;;
73850;SDS011;62190;51.548;5.688;2022-10-29T14:21:00;13.75;;;5.72;;
73850;SDS011;62190;51.548;5.688;2022-10-29T14:23:29;14.45;;;6.50;;
73850;SDS011;62190;51.548;5.688;2022-10-29T14:26:00;14.85;;;6.65;;
73850;SDS011;62190;51.548;5.688;2022-10-29T14:28:31;11.60;;;6.42;;
73850;SDS011;62190;51.548;5.688;2022-10-29T14:31:05;15.90;;;6.37;;
73850;SDS011;62190;51.548;5.688;2022-10-29T14:33:40;14.28;;;6.37;;
73850;SDS011;62190;51.548;5.688;2022-10-29T14:36:15;10.23;;;5.87;;
73850;SDS011;62190;51.548;5.688;2022-10-29T14:41:28;16.42;;;6.08;;
73850;SDS011;62190;51.548;5.688;2022-10-29T14:44:06;18.75;;;6.90;;
73850;SDS011;62190;51.548;5.688;2022-10-29T14:46:50;14.87;;;6.80;;
73850;SDS011;62190;51.548;5.688;2022-10-29T14:49:31;16.62;;;6.95;;
73850;SDS011;62190;51.548;5.688;2022-10-29T14:52:01;17.25;;;7.33;;
73850;SDS011;62190;51.548;5.688;2022-10-29T14:54:34;13.03;;;6.55;;
73850;SDS011;62190;51.548;5.688;2022-10-29T14:57:14;12.30;;;6.85;;
73850;SDS011;62190;51.548;5.688;2022-10-29T14:59:37;12.95;;;5.85;;
73850;SDS011;62190;51.548;5.688;2022-10-29T15:02:08;12.23;;;6.67;;
73850;SDS011;62190;51.548;5.688;2022-10-29T15:04:44;20.48;;;7.40;;
73850;SDS011;62190;51.548;5.688;2022-10-29T15:09:48;12.10;;;6.70;;
73850;SDS011;62190;51.548;5.688;2022-10-29T15:12:36;19.45;;;6.87;;
73850;SDS011;62190;51.548;5.688;2022-10-29T15:15:08;14.85;;;6.80;;
73850;SDS011;62190;51.548;5.688;2022-10-29T15:17:59;14.53;;;6.70;;
73850;SDS011;62190;51.548;5.688;2022-10-29T15:20:36;16.95;;;6.50;;
73850;SDS011;62190;51.548;5.688;2022-10-29T15:23:14;12.35;;;6.10;;
73850;SDS011;62190;51.548;5.688;2022-10-29T15:25:56;15.93;;;7.23;;
73850;SDS011;62190;51.548;5.688;2022-10-29T15:28:26;17.67;;;6.60;;
73850;SDS011;62190;51.548;5.688;2022-10-29T15:30:59;13.75;;;6.85;;
73850;SDS011;62190;51.548;5.688;2022-10-29T15:33:28;13.38;;;6.80;;
73850;SDS011;62190;51.548;5.688;2022-10-29T15:35:57;17.92;;;6.87;;
73850;SDS011;62190;51.548;5.688;2022-10-29T15:43:48;14.20;;;6.00;;
73850;SDS011;62190;51.548;5.688;2022-10-29T15:46:22;20.30;;;7.75;;
73850;SDS011;62190;51.548;5.688;2022-10-29T15:48:50;19.62;;;7.42;;
73850;SDS011;62190;51.548;5.688;2022-10-29T15:51:24;17.82;;;8.25;;
73850;SDS011;62190;51.548;5.688;2022-10-29T15:53:48;19.37;;;8.80;;
73850;SDS011;62190;51.548;5.688;2022-10-29T15:56:16;21.42;;;8.45;;
73850;SDS011;62190;51.548;5.688;2022-10-29T15:58:43;19.27;;;8.03;;
73850;SDS011;62190;51.548;5.688;2022-10-29T16:01:11;18.07;;;8.18;;
73850;SDS011;62190;51.548;5.688;2022-10-29T16:03:41;20.70;;;8.18;;
73850;SDS011;62190;51.548;5.688;2022-10-29T16:06:11;17.17;;;8.48;;
73850;SDS011;62190;51.548;5.688;2022-10-29T16:08:44;21.42;;;9.23;;
73850;SDS011;62190;51.548;5.688;2022-10-29T16:11:19;16.70;;;8.35;;
73850;SDS011;62190;51.548;5.688;2022-10-29T16:13:47;23.87;;;10.13;;
73850;SDS011;62190;51.548;5.688;2022-10-29T16:16:16;21.93;;;10.00;;
73850;SDS011;62190;51.548;5.688;2022-10-29T16:18:45;19.75;;;9.80;;
73850;SDS011;62190;51.548;5.688;2022-10-29T16:21:14;16.55;;;9.88;;
73850;SDS011;62190;51.548;5.688;2022-10-29T16:23:43;25.27;;;10.78;;
73850;SDS011;62190;51.548;5.688;2022-10-29T16:26:19;21.77;;;10.13;;
73850;SDS011;62190;51.548;5.688;2022-10-29T16:28:47;21.68;;;11.05;;
73850;SDS011;62190;51.548;5.688;2022-10-29T16:31:17;25.40;;;11.83;;
73850;SDS011;62190;51.548;5.688;2022-10-29T16:33:47;22.40;;;11.65;;